Chester Depot, Vermont
Current Conditions -  °F | °C
As of 5:54 PM on Monday 20 Oct 2014 (Local Time) from KVSF Reporting Station
Overcast Overcast  
Wind Chill: 50°   Ceiling: 7500
Heat Index: 50°   Visibility: 10mi
Dew Point: 37°   Wind: 0mph
Humidity: 61%   Direction: NA
Pressure: 29.94"   Gusts: NA
Location:  43.36°N, 72.57°W
Report Text: KVSF 202154Z AUTO 00000KT 10SM OVC075 10/03 A2994 RMK AO2 SLP143 T01000028
Loading
Personal Weather Stations






























Interactive Weather Map
Tropical Storm Tracking
New forecast layout! Learn more

10-Day Weather Forecast

Advertisements
Track Severe Weather on mobile